sensor_id;sensor_type;location;lat;lon;timestamp;temperature;humidity
8563;DHT22;16392;52.508;13.468;2023-07-08T00:01:45;19.30;24.30
8563;DHT22;16392;52.508;13.468;2023-07-08T00:04:12;19.40;33.30
8563;DHT22;16392;52.508;13.468;2023-07-08T00:06:39;19.50;99.90
8563;DHT22;16392;52.508;13.468;2023-07-08T00:09:10;19.50;1.00
8563;DHT22;16392;52.508;13.468;2023-07-08T00:11:37;19.60;99.90
8563;DHT22;16392;52.508;13.468;2023-07-08T00:14:07;19.50;99.90
8563;DHT22;16392;52.508;13.468;2023-07-08T00:16:34;19.40;99.90
8563;DHT22;16392;52.508;13.468;2023-07-08T00:19:01;19.40;99.90
8563;DHT22;16392;52.508;13.468;2023-07-08T00:21:28;19.30;99.90
8563;DHT22;16392;52.508;13.468;2023-07-08T00:23:54;19.20;1.00
8563;DHT22;16392;52.508;13.468;2023-07-08T00:26:23;19.10;1.00
8563;DHT22;16392;52.508;13.468;2023-07-08T00:28:52;19.00;1.00
8563;DHT22;16392;52.508;13.468;2023-07-08T00:31:20;19.00;1.00
8563;DHT22;16392;52.508;13.468;2023-07-08T00:33:49;18.90;1.00
8563;DHT22;16392;52.508;13.468;2023-07-08T00:36:16;18.90;93.60
8563;DHT22;16392;52.508;13.468;2023-07-08T00:38:43;19.00;98.10
8563;DHT22;16392;52.508;13.468;2023-07-08T00:41:13;19.10;1.00
8563;DHT22;16392;52.508;13.468;2023-07-08T00:43:44;19.10;1.00
8563;DHT22;16392;52.508;13.468;2023-07-08T00:46:21;19.10;1.00
8563;DHT22;16392;52.508;13.468;2023-07-08T00:48:52;19.00;1.00
8563;DHT22;16392;52.508;13.468;2023-07-08T00:51:22;19.00;1.00
8563;DHT22;16392;52.508;13.468;2023-07-08T00:53:49;18.90;1.00
8563;DHT22;16392;52.508;13.468;2023-07-08T00:56:20;18.90;22.30
8563;DHT22;16392;52.508;13.468;2023-07-08T00:58:50;18.70;99.90
8563;DHT22;16392;52.508;13.468;2023-07-08T01:01:20;18.70;99.90
8563;DHT22;16392;52.508;13.468;2023-07-08T01:03:49;18.70;99.90
8563;DHT22;16392;52.508;13.468;2023-07-08T01:06:17;18.70;78.00
8563;DHT22;16392;52.508;13.468;2023-07-08T01:08:45;18.80;1.00
8563;DHT22;16392;52.508;13.468;2023-07-08T01:11:12;18.80;1.00
8563;DHT22;16392;52.508;13.468;2023-07-08T01:13:41;18.90;1.00
8563;DHT22;16392;52.508;13.468;2023-07-08T01:16:08;19.00;1.00
8563;DHT22;16392;52.508;13.468;2023-07-08T01:18:37;19.00;1.00
8563;DHT22;16392;52.508;13.468;2023-07-08T01:21:26;19.00;1.00
8563;DHT22;16392;52.508;13.468;2023-07-08T01:23:54;19.10;99.90
8563;DHT22;16392;52.508;13.468;2023-07-08T01:26:23;19.10;99.90
8563;DHT22;16392;52.508;13.468;2023-07-08T01:28:50;19.20;1.00
8563;DHT22;16392;52.508;13.468;2023-07-08T01:31:18;19.20;99.90
8563;DHT22;16392;52.508;13.468;2023-07-08T01:33:45;19.20;99.90
8563;DHT22;16392;52.508;13.468;2023-07-08T01:36:12;19.20;99.90
8563;DHT22;16392;52.508;13.468;2023-07-08T01:38:38;19.20;99.90
8563;DHT22;16392;52.508;13.468;2023-07-08T01:41:11;19.10;1.00
8563;DHT22;16392;52.508;13.468;2023-07-08T01:43:38;19.10;99.90
8563;DHT22;16392;52.508;13.468;2023-07-08T01:46:12;19.00;99.90
8563;DHT22;16392;52.508;13.468;2023-07-08T01:48:44;18.90;1.00
8563;DHT22;16392;52.508;13.468;2023-07-08T01:51:11;18.80;1.00
8563;DHT22;16392;52.508;13.468;2023-07-08T01:53:39;18.80;1.00
8563;DHT22;16392;52.508;13.468;2023-07-08T01:56:08;18.80;1.00
8563;DHT22;16392;52.508;13.468;2023-07-08T01:58:35;18.70;1.00
8563;DHT22;16392;52.508;13.468;2023-07-08T02:01:03;18.70;1.00
8563;DHT22;16392;52.508;13.468;2023-07-08T02:03:30;18.70;1.00
8563;DHT22;16392;52.508;13.468;2023-07-08T02:05:57;18.70;1.00
8563;DHT22;16392;52.508;13.468;2023-07-08T02:08:24;18.70;1.00
8563;DHT22;16392;52.508;13.468;2023-07-08T02:10:52;18.70;1.00
8563;DHT22;16392;52.508;13.468;2023-07-08T02:13:21;18.70;1.00
8563;DHT22;16392;52.508;13.468;2023-07-08T02:15:48;18.60;1.00
8563;DHT22;16392;52.508;13.468;2023-07-08T02:18:15;18.50;1.70
8563;DHT22;16392;52.508;13.468;2023-07-08T02:20:44;18.40;99.60
8563;DHT22;16392;52.508;13.468;2023-07-08T02:23:11;18.30;99.90
8563;DHT22;16392;52.508;13.468;2023-07-08T02:25:37;18.30;99.90
8563;DHT22;16392;52.508;13.468;2023-07-08T02:28:04;18.30;99.90
8563;DHT22;16392;52.508;13.468;2023-07-08T02:30:32;18.30;99.90
8563;DHT22;16392;52.508;13.468;2023-07-08T02:32:58;18.40;49.90
8563;DHT22;16392;52.508;13.468;2023-07-08T02:35:26;18.50;40.30
8563;DHT22;16392;52.508;13.468;2023-07-08T02:37:54;18.50;1.00
8563;DHT22;16392;52.508;13.468;2023-07-08T02:40:21;18.50;1.00
8563;DHT22;16392;52.508;13.468;2023-07-08T02:42:48;18.50;1.00
8563;DHT22;16392;52.508;13.468;2023-07-08T02:45:16;18.40;58.60
8563;DHT22;16392;52.508;13.468;2023-07-08T02:47:44;18.40;1.00
8563;DHT22;16392;52.508;13.468;2023-07-08T02:50:11;18.50;1.00
8563;DHT22;16392;52.508;13.468;2023-07-08T02:52:38;18.40;3.10
8563;DHT22;16392;52.508;13.468;2023-07-08T02:55:06;18.40;99.90
8563;DHT22;16392;52.508;13.468;2023-07-08T02:57:33;18.30;99.90
8563;DHT22;16392;52.508;13.468;2023-07-08T02:59:59;18.20;99.90
8563;DHT22;16392;52.508;13.468;2023-07-08T03:02:26;18.20;99.90
8563;DHT22;16392;52.508;13.468;2023-07-08T03:04:54;18.20;99.90
8563;DHT22;16392;52.508;13.468;2023-07-08T03:07:24;18.20;99.90
8563;DHT22;16392;52.508;13.468;2023-07-08T03:09:51;18.30;99.90
8563;DHT22;16392;52.508;13.468;2023-07-08T03:12:18;18.20;1.00
8563;DHT22;16392;52.508;13.468;2023-07-08T03:14:44;18.20;1.00
8563;DHT22;16392;52.508;13.468;2023-07-08T03:17:11;18.20;99.90
8563;DHT22;16392;52.508;13.468;2023-07-08T03:19:37;18.30;99.90
8563;DHT22;16392;52.508;13.468;2023-07-08T03:22:06;18.30;99.90
8563;DHT22;16392;52.508;13.468;2023-07-08T03:24:33;18.20;1.00
8563;DHT22;16392;52.508;13.468;2023-07-08T03:27:00;18.20;1.00
8563;DHT22;16392;52.508;13.468;2023-07-08T03:29:30;18.10;1.00
8563;DHT22;16392;52.508;13.468;2023-07-08T03:31:57;18.10;1.00
8563;DHT22;16392;52.508;13.468;2023-07-08T03:34:23;18.30;39.00
8563;DHT22;16392;52.508;13.468;2023-07-08T03:36:51;18.60;1.00
8563;DHT22;16392;52.508;13.468;2023-07-08T03:39:22;18.90;1.00
8563;DHT22;16392;52.508;13.468;2023-07-08T03:41:50;19.40;1.00
8563;DHT22;16392;52.508;13.468;2023-07-08T03:44:17;19.80;1.00
8563;DHT22;16392;52.508;13.468;2023-07-08T03:46:45;20.10;1.00
8563;DHT22;16392;52.508;13.468;2023-07-08T03:49:12;20.40;99.90
8563;DHT22;16392;52.508;13.468;2023-07-08T03:51:40;20.80;63.50
8563;DHT22;16392;52.508;13.468;2023-07-08T03:54:11;21.10;1.00
8563;DHT22;16392;52.508;13.468;2023-07-08T03:56:40;21.20;1.00
8563;DHT22;16392;52.508;13.468;2023-07-08T03:59:08;21.50;1.00
8563;DHT22;16392;52.508;13.468;2023-07-08T04:01:35;21.80;18.50
8563;DHT22;16392;52.508;13.468;2023-07-08T04:04:04;22.20;1.00
8563;DHT22;16392;52.508;13.468;2023-07-08T04:06:31;22.70;99.90
8563;DHT22;16392;52.508;13.468;2023-07-08T04:08:59;23.00;99.90
8563;DHT22;16392;52.508;13.468;2023-07-08T04:11:26;23.10;99.90
8563;DHT22;16392;52.508;13.468;2023-07-08T04:13:55;22.90;99.90
8563;DHT22;16392;52.508;13.468;2023-07-08T04:16:24;22.80;99.90
8563;DHT22;16392;52.508;13.468;2023-07-08T04:18:53;22.90;99.90
8563;DHT22;16392;52.508;13.468;2023-07-08T04:21:21;23.00;99.90
8563;DHT22;16392;52.508;13.468;2023-07-08T04:23:48;23.10;99.90
8563;DHT22;16392;52.508;13.468;2023-07-08T04:26:14;23.20;71.90
8563;DHT22;16392;52.508;13.468;2023-07-08T04:28:42;23.40;27.80
8563;DHT22;16392;52.508;13.468;2023-07-08T04:31:10;23.50;18.20
8563;DHT22;16392;52.508;13.468;2023-07-08T04:33:37;23.80;1.00
8563;DHT22;16392;52.508;13.468;2023-07-08T04:36:05;23.80;1.00
8563;DHT22;16392;52.508;13.468;2023-07-08T04:38:36;24.20;1.00
8563;DHT22;16392;52.508;13.468;2023-07-08T04:41:02;24.40;1.00
8563;DHT22;16392;52.508;13.468;2023-07-08T04:43:30;24.60;1.00
8563;DHT22;16392;52.508;13.468;2023-07-08T04:45:57;24.90;1.00
8563;DHT22;16392;52.508;13.468;2023-07-08T04:48:25;25.10;1.00
8563;DHT22;16392;52.508;13.468;2023-07-08T04:50:52;25.10;1.00
8563;DHT22;16392;52.508;13.468;2023-07-08T04:53:19;25.30;1.00
8563;DHT22;16392;52.508;13.468;2023-07-08T04:55:48;25.70;1.00
8563;DHT22;16392;52.508;13.468;2023-07-08T04:58:16;26.10;1.00
8563;DHT22;16392;52.508;13.468;2023-07-08T05:00:42;26.20;1.00
8563;DHT22;16392;52.508;13.468;2023-07-08T05:03:09;26.50;1.00
8563;DHT22;16392;52.508;13.468;2023-07-08T05:05:37;26.80;1.00
8563;DHT22;16392;52.508;13.468;2023-07-08T05:08:03;27.00;1.00
8563;DHT22;16392;52.508;13.468;2023-07-08T05:10:30;27.10;1.00
8563;DHT22;16392;52.508;13.468;2023-07-08T05:12:56;27.40;1.00
8563;DHT22;16392;52.508;13.468;2023-07-08T05:15:23;27.50;1.00
8563;DHT22;16392;52.508;13.468;2023-07-08T05:17:50;27.60;1.00
8563;DHT22;16392;52.508;13.468;2023-07-08T05:20:18;27.70;1.00
8563;DHT22;16392;52.508;13.468;2023-07-08T05:22:46;27.90;1.00
8563;DHT22;16392;52.508;13.468;2023-07-08T05:25:13;27.80;1.00
8563;DHT22;16392;52.508;13.468;2023-07-08T05:27:41;27.80;1.00
8563;DHT22;16392;52.508;13.468;2023-07-08T05:30:14;27.60;1.00
8563;DHT22;16392;52.508;13.468;2023-07-08T05:32:41;27.60;1.00
8563;DHT22;16392;52.508;13.468;2023-07-08T05:35:12;27.90;1.00
8563;DHT22;16392;52.508;13.468;2023-07-08T05:37:38;28.10;1.00
8563;DHT22;16392;52.508;13.468;2023-07-08T05:40:08;27.90;1.00
8563;DHT22;16392;52.508;13.468;2023-07-08T05:42:35;27.60;1.00
8563;DHT22;16392;52.508;13.468;2023-07-08T05:45:03;27.60;1.00
8563;DHT22;16392;52.508;13.468;2023-07-08T05:47:32;27.70;1.00
8563;DHT22;16392;52.508;13.468;2023-07-08T05:49:59;27.80;99.90
8563;DHT22;16392;52.508;13.468;2023-07-08T05:52:25;27.40;99.90
8563;DHT22;16392;52.508;13.468;2023-07-08T05:54:52;27.50;1.00
8563;DHT22;16392;52.508;13.468;2023-07-08T05:57:22;28.10;1.00
8563;DHT22;16392;52.508;13.468;2023-07-08T05:59:51;28.60;1.00
8563;DHT22;16392;52.508;13.468;2023-07-08T06:02:18;29.10;1.00
8563;DHT22;16392;52.508;13.468;2023-07-08T06:04:48;29.10;99.90
8563;DHT22;16392;52.508;13.468;2023-07-08T06:07:15;29.00;99.90
8563;DHT22;16392;52.508;13.468;2023-07-08T06:09:42;28.80;99.90
8563;DHT22;16392;52.508;13.468;2023-07-08T06:12:08;29.00;99.90
8563;DHT22;16392;52.508;13.468;2023-07-08T06:14:37;28.90;99.90
8563;DHT22;16392;52.508;13.468;2023-07-08T06:17:05;28.60;99.90
8563;DHT22;16392;52.508;13.468;2023-07-08T06:19:32;29.20;99.90
8563;DHT22;16392;52.508;13.468;2023-07-08T06:21:59;29.30;99.90
8563;DHT22;16392;52.508;13.468;2023-07-08T06:24:26;29.50;99.90
8563;DHT22;16392;52.508;13.468;2023-07-08T06:26:53;29.80;99.90
8563;DHT22;16392;52.508;13.468;2023-07-08T06:29:19;30.70;99.90
8563;DHT22;16392;52.508;13.468;2023-07-08T06:31:47;30.90;99.90
8563;DHT22;16392;52.508;13.468;2023-07-08T06:34:14;30.90;99.90
8563;DHT22;16392;52.508;13.468;2023-07-08T06:36:41;31.10;99.90
8563;DHT22;16392;52.508;13.468;2023-07-08T06:39:07;30.70;99.90
8563;DHT22;16392;52.508;13.468;2023-07-08T06:41:36;30.60;99.90
8563;DHT22;16392;52.508;13.468;2023-07-08T06:44:03;31.30;99.90
8563;DHT22;16392;52.508;13.468;2023-07-08T06:46:30;31.10;99.90
8563;DHT22;16392;52.508;13.468;2023-07-08T06:48:58;31.20;99.90
8563;DHT22;16392;52.508;13.468;2023-07-08T06:51:25;31.80;99.90
8563;DHT22;16392;52.508;13.468;2023-07-08T06:53:51;31.90;99.90
8563;DHT22;16392;52.508;13.468;2023-07-08T06:56:18;32.30;99.90
8563;DHT22;16392;52.508;13.468;2023-07-08T06:58:45;32.10;99.90
8563;DHT22;16392;52.508;13.468;2023-07-08T07:01:12;32.30;99.90
8563;DHT22;16392;52.508;13.468;2023-07-08T07:03:40;31.80;99.90
8563;DHT22;16392;52.508;13.468;2023-07-08T07:06:09;31.90;99.90
8563;DHT22;16392;52.508;13.468;2023-07-08T07:08:35;31.80;99.90
8563;DHT22;16392;52.508;13.468;2023-07-08T07:11:02;31.30;99.90
8563;DHT22;16392;52.508;13.468;2023-07-08T07:13:29;31.60;99.90
8563;DHT22;16392;52.508;13.468;2023-07-08T07:15:55;32.00;99.90
8563;DHT22;16392;52.508;13.468;2023-07-08T07:18:22;32.40;99.90
8563;DHT22;16392;52.508;13.468;2023-07-08T07:20:50;32.50;99.90
8563;DHT22;16392;52.508;13.468;2023-07-08T07:23:18;32.40;99.90
8563;DHT22;16392;52.508;13.468;2023-07-08T07:25:45;32.70;99.90
8563;DHT22;16392;52.508;13.468;2023-07-08T07:28:14;33.10;99.90
8563;DHT22;16392;52.508;13.468;2023-07-08T07:30:42;32.80;99.90
8563;DHT22;16392;52.508;13.468;2023-07-08T07:33:08;32.40;99.90
8563;DHT22;16392;52.508;13.468;2023-07-08T07:35:35;32.20;99.90
8563;DHT22;16392;52.508;13.468;2023-07-08T07:38:01;31.90;99.90
8563;DHT22;16392;52.508;13.468;2023-07-08T07:40:29;32.00;99.90
8563;DHT22;16392;52.508;13.468;2023-07-08T07:42:56;32.20;99.90
8563;DHT22;16392;52.508;13.468;2023-07-08T07:45:22;33.10;99.90
8563;DHT22;16392;52.508;13.468;2023-07-08T07:47:49;33.20;99.90
8563;DHT22;16392;52.508;13.468;2023-07-08T07:50:16;32.90;99.90
8563;DHT22;16392;52.508;13.468;2023-07-08T07:52:42;33.00;99.90
8563;DHT22;16392;52.508;13.468;2023-07-08T07:55:09;32.60;99.90
8563;DHT22;16392;52.508;13.468;2023-07-08T07:57:37;33.00;99.90
8563;DHT22;16392;52.508;13.468;2023-07-08T08:00:04;33.10;99.90
8563;DHT22;16392;52.508;13.468;2023-07-08T08:02:31;32.60;99.90
8563;DHT22;16392;52.508;13.468;2023-07-08T08:04:58;32.40;99.90
8563;DHT22;16392;52.508;13.468;2023-07-08T08:07:24;32.30;99.90
8563;DHT22;16392;52.508;13.468;2023-07-08T08:09:51;31.40;99.90
8563;DHT22;16392;52.508;13.468;2023-07-08T08:12:18;31.90;99.90
8563;DHT22;16392;52.508;13.468;2023-07-08T08:14:46;33.10;99.90
8563;DHT22;16392;52.508;13.468;2023-07-08T08:17:12;33.90;99.90
8563;DHT22;16392;52.508;13.468;2023-07-08T08:19:39;33.60;99.90
8563;DHT22;16392;52.508;13.468;2023-07-08T08:22:06;34.10;99.90
8563;DHT22;16392;52.508;13.468;2023-07-08T08:24:33;33.20;99.90
8563;DHT22;16392;52.508;13.468;2023-07-08T08:27:00;33.30;99.90
8563;DHT22;16392;52.508;13.468;2023-07-08T08:29:27;32.70;99.90
8563;DHT22;16392;52.508;13.468;2023-07-08T08:31:54;32.90;99.90
8563;DHT22;16392;52.508;13.468;2023-07-08T08:34:21;32.90;99.90
8563;DHT22;16392;52.508;13.468;2023-07-08T08:36:48;32.60;99.90
8563;DHT22;16392;52.508;13.468;2023-07-08T08:39:14;33.00;99.90
8563;DHT22;16392;52.508;13.468;2023-07-08T08:41:42;32.90;99.90
8563;DHT22;16392;52.508;13.468;2023-07-08T08:44:14;33.30;99.90
8563;DHT22;16392;52.508;13.468;2023-07-08T08:46:45;33.20;99.90
8563;DHT22;16392;52.508;13.468;2023-07-08T08:49:23;34.10;99.90
8563;DHT22;16392;52.508;13.468;2023-07-08T08:51:52;34.50;99.90
8563;DHT22;16392;52.508;13.468;2023-07-08T08:54:19;33.60;99.90
8563;DHT22;16392;52.508;13.468;2023-07-08T08:56:52;33.20;99.90
8563;DHT22;16392;52.508;13.468;2023-07-08T08:59:29;33.30;99.90
8563;DHT22;16392;52.508;13.468;2023-07-08T09:01:58;32.50;99.90
8563;DHT22;16392;52.508;13.468;2023-07-08T09:04:33;32.70;99.90
8563;DHT22;16392;52.508;13.468;2023-07-08T09:07:07;33.00;99.90
8563;DHT22;16392;52.508;13.468;2023-07-08T09:09:38;33.10;99.90
8563;DHT22;16392;52.508;13.468;2023-07-08T09:12:13;32.70;99.90
8563;DHT22;16392;52.508;13.468;2023-07-08T09:14:42;32.80;99.90
8563;DHT22;16392;52.508;13.468;2023-07-08T09:17:15;33.20;99.90
8563;DHT22;16392;52.508;13.468;2023-07-08T09:19:48;33.20;99.90
8563;DHT22;16392;52.508;13.468;2023-07-08T09:22:21;33.70;99.90
8563;DHT22;16392;52.508;13.468;2023-07-08T09:24:54;33.70;99.90
8563;DHT22;16392;52.508;13.468;2023-07-08T09:27:22;33.10;99.90
8563;DHT22;16392;52.508;13.468;2023-07-08T09:29:49;32.80;99.90
8563;DHT22;16392;52.508;13.468;2023-07-08T09:32:22;32.50;99.90
8563;DHT22;16392;52.508;13.468;2023-07-08T09:34:52;32.40;99.90
8563;DHT22;16392;52.508;13.468;2023-07-08T09:37:26;32.00;99.90
8563;DHT22;16392;52.508;13.468;2023-07-08T09:39:54;32.60;99.90
8563;DHT22;16392;52.508;13.468;2023-07-08T09:42:21;33.70;99.90
8563;DHT22;16392;52.508;13.468;2023-07-08T09:44:54;33.60;99.90
8563;DHT22;16392;52.508;13.468;2023-07-08T09:47:23;33.30;99.90
8563;DHT22;16392;52.508;13.468;2023-07-08T09:49:51;33.10;99.90
8563;DHT22;16392;52.508;13.468;2023-07-08T09:52:18;34.00;99.90
8563;DHT22;16392;52.508;13.468;2023-07-08T09:54:46;34.70;99.90
8563;DHT22;16392;52.508;13.468;2023-07-08T09:57:21;34.40;99.90
8563;DHT22;16392;52.508;13.468;2023-07-08T09:59:49;34.90;99.90
8563;DHT22;16392;52.508;13.468;2023-07-08T10:02:28;34.40;99.90
8563;DHT22;16392;52.508;13.468;2023-07-08T10:04:59;33.50;99.90
8563;DHT22;16392;52.508;13.468;2023-07-08T10:07:29;33.20;99.90
8563;DHT22;16392;52.508;13.468;2023-07-08T10:09:58;33.30;99.90
8563;DHT22;16392;52.508;13.468;2023-07-08T10:12:25;33.50;99.90
8563;DHT22;16392;52.508;13.468;2023-07-08T10:14:58;33.50;99.90
8563;DHT22;16392;52.508;13.468;2023-07-08T10:17:26;34.60;99.90
8563;DHT22;16392;52.508;13.468;2023-07-08T10:19:52;35.20;99.90
8563;DHT22;16392;52.508;13.468;2023-07-08T10:22:30;34.90;99.90
8563;DHT22;16392;52.508;13.468;2023-07-08T10:25:11;34.80;98.10
8563;DHT22;16392;52.508;13.468;2023-07-08T10:27:44;33.90;84.30
8563;DHT22;16392;52.508;13.468;2023-07-08T10:30:19;34.10;77.40
8563;DHT22;16392;52.508;13.468;2023-07-08T10:32:55;34.20;80.80
8563;DHT22;16392;52.508;13.468;2023-07-08T10:35:28;34.10;73.30
8563;DHT22;16392;52.508;13.468;2023-07-08T10:38:15;33.70;64.10
8563;DHT22;16392;52.508;13.468;2023-07-08T10:40:48;33.70;73.20
8563;DHT22;16392;52.508;13.468;2023-07-08T10:43:36;34.00;75.80
8563;DHT22;16392;52.508;13.468;2023-07-08T10:46:21;33.70;58.50
8563;DHT22;16392;52.508;13.468;2023-07-08T10:49:06;32.90;50.30
8563;DHT22;16392;52.508;13.468;2023-07-08T10:51:42;33.30;61.30
8563;DHT22;16392;52.508;13.468;2023-07-08T10:54:30;33.20;48.20
8563;DHT22;16392;52.508;13.468;2023-07-08T10:57:16;34.00;61.90
8563;DHT22;16392;52.508;13.468;2023-07-08T10:59:55;33.40;31.30
8563;DHT22;16392;52.508;13.468;2023-07-08T11:02:39;34.00;48.00
8563;DHT22;16392;52.508;13.468;2023-07-08T11:05:23;33.60;58.50
8563;DHT22;16392;52.508;13.468;2023-07-08T11:07:56;34.30;62.20
8563;DHT22;16392;52.508;13.468;2023-07-08T11:10:29;35.20;83.20
8563;DHT22;16392;52.508;13.468;2023-07-08T11:13:03;35.40;60.80
8563;DHT22;16392;52.508;13.468;2023-07-08T11:15:36;34.80;45.10
8563;DHT22;16392;52.508;13.468;2023-07-08T11:18:11;33.60;27.00
8563;DHT22;16392;52.508;13.468;2023-07-08T11:20:41;33.50;25.50
8563;DHT22;16392;52.508;13.468;2023-07-08T11:23:24;33.60;14.20
8563;DHT22;16392;52.508;13.468;2023-07-08T11:26:00;32.70;9.90
8563;DHT22;16392;52.508;13.468;2023-07-08T11:28:28;33.40;38.70
8563;DHT22;16392;52.508;13.468;2023-07-08T11:30:58;34.20;40.70
8563;DHT22;16392;52.508;13.468;2023-07-08T11:33:28;34.50;38.30
8563;DHT22;16392;52.508;13.468;2023-07-08T11:35:57;35.40;66.20
8563;DHT22;16392;52.508;13.468;2023-07-08T11:38:25;36.20;61.00
8563;DHT22;16392;52.508;13.468;2023-07-08T11:40:57;35.30;1.00
8563;DHT22;16392;52.508;13.468;2023-07-08T11:43:26;34.40;1.00
8563;DHT22;16392;52.508;13.468;2023-07-08T11:45:56;33.60;1.00
8563;DHT22;16392;52.508;13.468;2023-07-08T11:48:26;33.10;1.00
8563;DHT22;16392;52.508;13.468;2023-07-08T11:50:54;33.70;1.00
8563;DHT22;16392;52.508;13.468;2023-07-08T11:53:46;33.10;1.00
8563;DHT22;16392;52.508;13.468;2023-07-08T11:56:25;33.40;1.00
8563;DHT22;16392;52.508;13.468;2023-07-08T11:59:09;33.20;5.20
8563;DHT22;16392;52.508;13.468;2023-07-08T12:01:40;33.50;1.00
8563;DHT22;16392;52.508;13.468;2023-07-08T12:04:23;33.10;1.00
8563;DHT22;16392;52.508;13.468;2023-07-08T12:07:03;33.10;1.00
8563;DHT22;16392;52.508;13.468;2023-07-08T12:09:36;34.20;1.00
8563;DHT22;16392;52.508;13.468;2023-07-08T12:12:16;34.00;1.00
8563;DHT22;16392;52.508;13.468;2023-07-08T12:14:44;34.20;1.00
8563;DHT22;16392;52.508;13.468;2023-07-08T12:17:12;33.90;1.00
8563;DHT22;16392;52.508;13.468;2023-07-08T12:19:43;33.40;1.00
8563;DHT22;16392;52.508;13.468;2023-07-08T12:22:11;33.20;1.00
8563;DHT22;16392;52.508;13.468;2023-07-08T12:24:38;33.50;1.00
8563;DHT22;16392;52.508;13.468;2023-07-08T12:27:09;33.80;1.00
8563;DHT22;16392;52.508;13.468;2023-07-08T12:29:36;34.20;1.00
8563;DHT22;16392;52.508;13.468;2023-07-08T12:32:04;33.20;1.00
8563;DHT22;16392;52.508;13.468;2023-07-08T12:34:32;33.30;1.00
8563;DHT22;16392;52.508;13.468;2023-07-08T12:36:58;32.60;1.00
8563;DHT22;16392;52.508;13.468;2023-07-08T12:39:26;32.80;1.00
8563;DHT22;16392;52.508;13.468;2023-07-08T12:41:59;33.80;1.00
8563;DHT22;16392;52.508;13.468;2023-07-08T12:44:27;34.00;1.00
8563;DHT22;16392;52.508;13.468;2023-07-08T12:47:01;33.40;1.00
8563;DHT22;16392;52.508;13.468;2023-07-08T12:49:29;33.40;1.00
8563;DHT22;16392;52.508;13.468;2023-07-08T12:51:56;33.70;1.00
8563;DHT22;16392;52.508;13.468;2023-07-08T12:54:22;33.10;1.00
8563;DHT22;16392;52.508;13.468;2023-07-08T12:56:49;34.00;1.00
8563;DHT22;16392;52.508;13.468;2023-07-08T12:59:19;33.60;1.00
8563;DHT22;16392;52.508;13.468;2023-07-08T13:01:50;34.00;1.00
8563;DHT22;16392;52.508;13.468;2023-07-08T13:04:17;34.40;1.00
8563;DHT22;16392;52.508;13.468;2023-07-08T13:06:46;34.90;1.00
8563;DHT22;16392;52.508;13.468;2023-07-08T13:09:35;34.70;1.00
8563;DHT22;16392;52.508;13.468;2023-07-08T13:12:10;33.50;1.00
8563;DHT22;16392;52.508;13.468;2023-07-08T13:14:39;32.70;1.00
8563;DHT22;16392;52.508;13.468;2023-07-08T13:17:12;33.30;1.00
8563;DHT22;16392;52.508;13.468;2023-07-08T13:19:41;33.90;1.00
8563;DHT22;16392;52.508;13.468;2023-07-08T13:22:14;34.30;1.00
8563;DHT22;16392;52.508;13.468;2023-07-08T13:24:41;33.50;1.00
8563;DHT22;16392;52.508;13.468;2023-07-08T13:27:13;33.50;1.00
8563;DHT22;16392;52.508;13.468;2023-07-08T13:29:41;34.30;1.00
8563;DHT22;16392;52.508;13.468;2023-07-08T13:32:11;33.50;1.00
8563;DHT22;16392;52.508;13.468;2023-07-08T13:34:39;33.30;1.00
8563;DHT22;16392;52.508;13.468;2023-07-08T13:37:10;34.10;1.00
8563;DHT22;16392;52.508;13.468;2023-07-08T13:39:44;34.30;1.00
8563;DHT22;16392;52.508;13.468;2023-07-08T13:42:12;34.70;1.00
8563;DHT22;16392;52.508;13.468;2023-07-08T13:44:43;33.70;1.00
8563;DHT22;16392;52.508;13.468;2023-07-08T13:47:21;33.00;1.00
8563;DHT22;16392;52.508;13.468;2023-07-08T13:49:54;33.40;1.00
8563;DHT22;16392;52.508;13.468;2023-07-08T13:52:22;34.30;1.00
8563;DHT22;16392;52.508;13.468;2023-07-08T13:54:51;34.70;1.00
8563;DHT22;16392;52.508;13.468;2023-07-08T13:57:21;35.10;1.00
8563;DHT22;16392;52.508;13.468;2023-07-08T13:59:49;35.50;1.00
8563;DHT22;16392;52.508;13.468;2023-07-08T14:02:19;35.40;1.00
8563;DHT22;16392;52.508;13.468;2023-07-08T14:04:50;35.80;1.00
8563;DHT22;16392;52.508;13.468;2023-07-08T14:07:21;35.80;1.00
8563;DHT22;16392;52.508;13.468;2023-07-08T14:09:48;36.40;1.00
8563;DHT22;16392;52.508;13.468;2023-07-08T14:12:15;35.80;1.00
8563;DHT22;16392;52.508;13.468;2023-07-08T14:14:42;34.80;1.00
8563;DHT22;16392;52.508;13.468;2023-07-08T14:17:11;34.60;1.00
8563;DHT22;16392;52.508;13.468;2023-07-08T14:19:39;34.70;1.00
8563;DHT22;16392;52.508;13.468;2023-07-08T14:22:22;34.70;1.00
8563;DHT22;16392;52.508;13.468;2023-07-08T14:24:49;33.20;1.00
8563;DHT22;16392;52.508;13.468;2023-07-08T14:27:15;32.50;1.00
8563;DHT22;16392;52.508;13.468;2023-07-08T14:29:45;32.70;1.00
8563;DHT22;16392;52.508;13.468;2023-07-08T14:32:18;32.60;1.00
8563;DHT22;16392;52.508;13.468;2023-07-08T14:34:51;32.00;1.00
8563;DHT22;16392;52.508;13.468;2023-07-08T14:37:19;31.90;1.00
8563;DHT22;16392;52.508;13.468;2023-07-08T14:39:49;32.30;1.00
8563;DHT22;16392;52.508;13.468;2023-07-08T14:42:17;32.80;1.00
8563;DHT22;16392;52.508;13.468;2023-07-08T14:44:50;32.50;1.00
8563;DHT22;16392;52.508;13.468;2023-07-08T14:47:19;32.60;1.00
8563;DHT22;16392;52.508;13.468;2023-07-08T14:49:48;32.90;1.00
8563;DHT22;16392;52.508;13.468;2023-07-08T14:52:15;32.50;1.00
8563;DHT22;16392;52.508;13.468;2023-07-08T14:54:42;31.80;1.00
8563;DHT22;16392;52.508;13.468;2023-07-08T14:57:14;31.20;1.00
8563;DHT22;16392;52.508;13.468;2023-07-08T14:59:42;30.90;1.00
8563;DHT22;16392;52.508;13.468;2023-07-08T15:02:21;30.90;1.00
8563;DHT22;16392;52.508;13.468;2023-07-08T15:04:49;30.90;1.00
8563;DHT22;16392;52.508;13.468;2023-07-08T15:07:19;30.70;1.00
8563;DHT22;16392;52.508;13.468;2023-07-08T15:09:46;30.60;1.00
8563;DHT22;16392;52.508;13.468;2023-07-08T15:12:12;30.70;1.00
8563;DHT22;16392;52.508;13.468;2023-07-08T15:14:39;30.70;1.00
8563;DHT22;16392;52.508;13.468;2023-07-08T15:17:15;30.70;1.00
8563;DHT22;16392;52.508;13.468;2023-07-08T15:19:42;30.90;1.00
8563;DHT22;16392;52.508;13.468;2023-07-08T15:22:11;30.80;1.00
8563;DHT22;16392;52.508;13.468;2023-07-08T15:24:37;30.70;1.00
8563;DHT22;16392;52.508;13.468;2023-07-08T15:27:05;30.70;1.00
8563;DHT22;16392;52.508;13.468;2023-07-08T15:29:33;30.70;1.00
8563;DHT22;16392;52.508;13.468;2023-07-08T15:32:00;30.80;1.00
8563;DHT22;16392;52.508;13.468;2023-07-08T15:34:27;30.70;1.00
8563;DHT22;16392;52.508;13.468;2023-07-08T15:36:54;30.50;1.00
8563;DHT22;16392;52.508;13.468;2023-07-08T15:39:22;30.40;1.00
8563;DHT22;16392;52.508;13.468;2023-07-08T15:41:52;30.30;1.00
8563;DHT22;16392;52.508;13.468;2023-07-08T15:44:18;30.20;1.00
8563;DHT22;16392;52.508;13.468;2023-07-08T15:46:46;30.10;1.00
8563;DHT22;16392;52.508;13.468;2023-07-08T15:49:16;30.10;1.00
8563;DHT22;16392;52.508;13.468;2023-07-08T15:51:43;30.10;1.00